sensor_id;sensor_type;location;lat;lon;timestamp;P1;durP1;ratioP1;P2;durP2;ratioP2
11537;SDS011;50159;49.426;11.182;2024-01-10T04:37:13;11.60;;;6.13;;
11537;SDS011;50159;49.426;11.182;2024-01-10T04:39:40;15.00;;;8.23;;
11537;SDS011;50159;49.426;11.182;2024-01-10T04:42:12;15.97;;;7.83;;
11537;SDS011;50159;49.426;11.182;2024-01-10T04:44:38;13.67;;;9.47;;
11537;SDS011;50159;49.426;11.182;2024-01-10T04:47:06;16.17;;;8.97;;
11537;SDS011;50159;49.426;11.182;2024-01-10T04:49:34;11.63;;;8.53;;
11537;SDS011;50159;49.426;11.182;2024-01-10T04:52:01;15.90;;;9.67;;
11537;SDS011;50159;49.426;11.182;2024-01-10T04:54:28;16.17;;;9.83;;
11537;SDS011;50159;49.426;11.182;2024-01-10T04:56:55;13.83;;;8.07;;
11537;SDS011;50159;49.426;11.182;2024-01-10T04:59:22;11.90;;;8.43;;
11537;SDS011;50159;49.426;11.182;2024-01-10T05:01:49;17.70;;;9.13;;
11537;SDS011;50159;49.426;11.182;2024-01-10T05:04:16;13.00;;;9.13;;
11537;SDS011;50159;49.426;11.182;2024-01-10T05:06:43;17.57;;;9.67;;
11537;SDS011;50159;49.426;11.182;2024-01-10T05:09:10;17.37;;;10.37;;
11537;SDS011;50159;49.426;11.182;2024-01-10T05:11:38;13.30;;;9.50;;
11537;SDS011;50159;49.426;11.182;2024-01-10T05:14:07;15.17;;;9.80;;
11537;SDS011;50159;49.426;11.182;2024-01-10T05:16:34;16.90;;;10.00;;
11537;SDS011;50159;49.426;11.182;2024-01-10T05:19:01;17.93;;;10.07;;
11537;SDS011;50159;49.426;11.182;2024-01-10T05:21:31;15.40;;;9.17;;
11537;SDS011;50159;49.426;11.182;2024-01-10T05:23:59;17.03;;;9.60;;
11537;SDS011;50159;49.426;11.182;2024-01-10T05:26:26;15.87;;;9.43;;
11537;SDS011;50159;49.426;11.182;2024-01-10T05:28:52;19.40;;;9.87;;
11537;SDS011;50159;49.426;11.182;2024-01-10T05:31:19;15.40;;;9.37;;
11537;SDS011;50159;49.426;11.182;2024-01-10T05:33:46;14.07;;;9.33;;
11537;SDS011;50159;49.426;11.182;2024-01-10T05:36:13;14.20;;;9.50;;
11537;SDS011;50159;49.426;11.182;2024-01-10T05:38:40;14.87;;;9.07;;
11537;SDS011;50159;49.426;11.182;2024-01-10T05:41:07;13.53;;;8.67;;
11537;SDS011;50159;49.426;11.182;2024-01-10T05:43:34;12.83;;;8.90;;
11537;SDS011;50159;49.426;11.182;2024-01-10T05:46:01;15.03;;;9.03;;
11537;SDS011;50159;49.426;11.182;2024-01-10T05:48:30;14.60;;;8.77;;
11537;SDS011;50159;49.426;11.182;2024-01-10T05:50:58;12.77;;;9.23;;
11537;SDS011;50159;49.426;11.182;2024-01-10T05:53:25;12.30;;;8.90;;
11537;SDS011;50159;49.426;11.182;2024-01-10T05:55:52;13.10;;;9.03;;
11537;SDS011;50159;49.426;11.182;2024-01-10T05:58:19;13.80;;;8.90;;
11537;SDS011;50159;49.426;11.182;2024-01-10T06:00:46;17.63;;;9.53;;
11537;SDS011;50159;49.426;11.182;2024-01-10T06:03:13;16.90;;;9.40;;
11537;SDS011;50159;49.426;11.182;2024-01-10T06:05:40;17.07;;;9.93;;
11537;SDS011;50159;49.426;11.182;2024-01-10T06:08:07;20.87;;;9.53;;
11537;SDS011;50159;49.426;11.182;2024-01-10T06:10:34;15.53;;;8.77;;
11537;SDS011;50159;49.426;11.182;2024-01-10T06:13:03;12.80;;;8.50;;
11537;SDS011;50159;49.426;11.182;2024-01-10T06:15:30;20.03;;;10.53;;
11537;SDS011;50159;49.426;11.182;2024-01-10T06:17:57;11.30;;;7.63;;
11537;SDS011;50159;49.426;11.182;2024-01-10T06:20:24;13.00;;;8.63;;
11537;SDS011;50159;49.426;11.182;2024-01-10T06:22:51;8.50;;;7.27;;
11537;SDS011;50159;49.426;11.182;2024-01-10T06:25:18;16.50;;;10.60;;
11537;SDS011;50159;49.426;11.182;2024-01-10T06:27:45;14.17;;;9.13;;
11537;SDS011;50159;49.426;11.182;2024-01-10T06:30:12;14.67;;;9.33;;
11537;SDS011;50159;49.426;11.182;2024-01-10T06:32:39;14.43;;;9.67;;
11537;SDS011;50159;49.426;11.182;2024-01-10T06:35:06;26.33;;;10.60;;
11537;SDS011;50159;49.426;11.182;2024-01-10T06:37:37;18.47;;;9.13;;
11537;SDS011;50159;49.426;11.182;2024-01-10T06:40:04;13.20;;;8.70;;
11537;SDS011;50159;49.426;11.182;2024-01-10T06:42:32;14.97;;;9.87;;
11537;SDS011;50159;49.426;11.182;2024-01-10T06:44:59;17.93;;;10.00;;
11537;SDS011;50159;49.426;11.182;2024-01-10T06:47:26;12.77;;;9.30;;
11537;SDS011;50159;49.426;11.182;2024-01-10T06:49:53;13.03;;;8.90;;
11537;SDS011;50159;49.426;11.182;2024-01-10T06:52:20;11.27;;;8.27;;
11537;SDS011;50159;49.426;11.182;2024-01-10T06:54:47;16.33;;;9.77;;
11537;SDS011;50159;49.426;11.182;2024-01-10T06:57:14;15.97;;;9.73;;
11537;SDS011;50159;49.426;11.182;2024-01-10T06:59:40;11.47;;;9.10;;
11537;SDS011;50159;49.426;11.182;2024-01-10T07:02:07;14.97;;;8.70;;
11537;SDS011;50159;49.426;11.182;2024-01-10T07:04:36;17.37;;;7.70;;
11537;SDS011;50159;49.426;11.182;2024-01-10T07:07:04;18.88;;;12.32;;
11537;SDS011;50159;49.426;11.182;2024-01-10T07:09:32;17.67;;;11.30;;
11537;SDS011;50159;49.426;11.182;2024-01-10T07:11:58;18.07;;;9.80;;
11537;SDS011;50159;49.426;11.182;2024-01-10T07:14:25;12.33;;;9.83;;
11537;SDS011;50159;49.426;11.182;2024-01-10T07:16:52;16.53;;;9.43;;
11537;SDS011;50159;49.426;11.182;2024-01-10T07:19:22;17.53;;;9.57;;
11537;SDS011;50159;49.426;11.182;2024-01-10T07:21:50;15.30;;;10.30;;
11537;SDS011;50159;49.426;11.182;2024-01-10T07:24:17;13.90;;;9.20;;
11537;SDS011;50159;49.426;11.182;2024-01-10T07:26:44;16.13;;;9.47;;
11537;SDS011;50159;49.426;11.182;2024-01-10T07:29:10;17.07;;;9.87;;
11537;SDS011;50159;49.426;11.182;2024-01-10T07:31:37;14.00;;;8.97;;
11537;SDS011;50159;49.426;11.182;2024-01-10T07:34:04;13.40;;;8.67;;
11537;SDS011;50159;49.426;11.182;2024-01-10T07:36:32;17.17;;;10.73;;
11537;SDS011;50159;49.426;11.182;2024-01-10T07:39:00;16.17;;;10.10;;
11537;SDS011;50159;49.426;11.182;2024-01-10T07:41:30;15.17;;;8.53;;
11537;SDS011;50159;49.426;11.182;2024-01-10T07:43:57;18.03;;;11.50;;
11537;SDS011;50159;49.426;11.182;2024-01-10T07:46:24;18.13;;;9.53;;
11537;SDS011;50159;49.426;11.182;2024-01-10T07:48:53;16.60;;;11.37;;
11537;SDS011;50159;49.426;11.182;2024-01-10T07:51:20;29.93;;;11.10;;
11537;SDS011;50159;49.426;11.182;2024-01-10T07:53:48;14.33;;;8.93;;
11537;SDS011;50159;49.426;11.182;2024-01-10T07:56:14;18.50;;;10.47;;
11537;SDS011;50159;49.426;11.182;2024-01-10T07:58:42;27.67;;;13.30;;
11537;SDS011;50159;49.426;11.182;2024-01-10T08:01:09;26.77;;;15.73;;
11537;SDS011;50159;49.426;11.182;2024-01-10T08:03:37;39.87;;;20.33;;
11537;SDS011;50159;49.426;11.182;2024-01-10T08:06:04;35.00;;;18.20;;
11537;SDS011;50159;49.426;11.182;2024-01-10T08:08:40;24.97;;;13.03;;
11537;SDS011;50159;49.426;11.182;2024-01-10T08:11:07;21.97;;;12.37;;
11537;SDS011;50159;49.426;11.182;2024-01-10T08:13:34;18.20;;;11.10;;
11537;SDS011;50159;49.426;11.182;2024-01-10T08:16:01;15.90;;;10.13;;
11537;SDS011;50159;49.426;11.182;2024-01-10T08:18:30;15.20;;;9.43;;
11537;SDS011;50159;49.426;11.182;2024-01-10T08:20:57;15.37;;;9.97;;
11537;SDS011;50159;49.426;11.182;2024-01-10T08:23:23;14.93;;;10.40;;
11537;SDS011;50159;49.426;11.182;2024-01-10T08:25:50;14.47;;;9.90;;
11537;SDS011;50159;49.426;11.182;2024-01-10T08:28:17;16.90;;;11.33;;
11537;SDS011;50159;49.426;11.182;2024-01-10T08:30:44;18.23;;;11.20;;
11537;SDS011;50159;49.426;11.182;2024-01-10T08:33:11;17.13;;;11.23;;
11537;SDS011;50159;49.426;11.182;2024-01-10T08:35:38;20.43;;;11.20;;
11537;SDS011;50159;49.426;11.182;2024-01-10T08:38:05;17.93;;;12.60;;
11537;SDS011;50159;49.426;11.182;2024-01-10T08:40:34;24.47;;;14.70;;
11537;SDS011;50159;49.426;11.182;2024-01-10T08:43:02;28.63;;;15.20;;
11537;SDS011;50159;49.426;11.182;2024-01-10T08:45:29;24.57;;;13.43;;
11537;SDS011;50159;49.426;11.182;2024-01-10T08:47:56;21.57;;;12.73;;
11537;SDS011;50159;49.426;11.182;2024-01-10T08:50:24;21.70;;;13.57;;
11537;SDS011;50159;49.426;11.182;2024-01-10T08:52:51;24.23;;;13.97;;
11537;SDS011;50159;49.426;11.182;2024-01-10T08:55:18;23.50;;;14.57;;
11537;SDS011;50159;49.426;11.182;2024-01-10T08:57:45;24.13;;;14.17;;
11537;SDS011;50159;49.426;11.182;2024-01-10T09:00:16;20.23;;;12.53;;
11537;SDS011;50159;49.426;11.182;2024-01-10T09:02:43;19.70;;;13.50;;
11537;SDS011;50159;49.426;11.182;2024-01-10T09:05:09;22.23;;;12.80;;
11537;SDS011;50159;49.426;11.182;2024-01-10T09:07:38;18.27;;;12.73;;
11537;SDS011;50159;49.426;11.182;2024-01-10T09:10:05;20.43;;;13.13;;
11537;SDS011;50159;49.426;11.182;2024-01-10T09:12:34;21.73;;;13.30;;
11537;SDS011;50159;49.426;11.182;2024-01-10T09:15:01;19.10;;;11.97;;
11537;SDS011;50159;49.426;11.182;2024-01-10T09:17:29;16.57;;;11.03;;
11537;SDS011;50159;49.426;11.182;2024-01-10T09:19:56;18.93;;;12.03;;
11537;SDS011;50159;49.426;11.182;2024-01-10T09:22:23;18.57;;;10.87;;
11537;SDS011;50159;49.426;11.182;2024-01-10T09:24:50;20.10;;;10.93;;
11537;SDS011;50159;49.426;11.182;2024-01-10T09:27:17;18.23;;;11.33;;
11537;SDS011;50159;49.426;11.182;2024-01-10T09:29:44;16.80;;;10.90;;
11537;SDS011;50159;49.426;11.182;2024-01-10T09:32:11;16.17;;;10.90;;
11537;SDS011;50159;49.426;11.182;2024-01-10T09:34:38;19.40;;;11.93;;
11537;SDS011;50159;49.426;11.182;2024-01-10T09:37:05;18.70;;;12.20;;
11537;SDS011;50159;49.426;11.182;2024-01-10T09:39:33;18.53;;;11.63;;
11537;SDS011;50159;49.426;11.182;2024-01-10T09:42:00;19.77;;;11.50;;
11537;SDS011;50159;49.426;11.182;2024-01-10T09:44:28;20.97;;;11.73;;
11537;SDS011;50159;49.426;11.182;2024-01-10T09:46:55;18.77;;;11.23;;
11537;SDS011;50159;49.426;11.182;2024-01-10T09:49:22;16.90;;;10.83;;
11537;SDS011;50159;49.426;11.182;2024-01-10T09:51:53;19.23;;;11.90;;
11537;SDS011;50159;49.426;11.182;2024-01-10T09:54:26;22.47;;;11.97;;
11537;SDS011;50159;49.426;11.182;2024-01-10T09:56:59;20.37;;;11.57;;
11537;SDS011;50159;49.426;11.182;2024-01-10T09:59:26;18.50;;;11.20;;
11537;SDS011;50159;49.426;11.182;2024-01-10T10:01:53;20.93;;;12.23;;
11537;SDS011;50159;49.426;11.182;2024-01-10T10:04:25;17.43;;;11.17;;
11537;SDS011;50159;49.426;11.182;2024-01-10T10:07:00;29.80;;;12.70;;
11537;SDS011;50159;49.426;11.182;2024-01-10T10:09:28;25.53;;;12.90;;
11537;SDS011;50159;49.426;11.182;2024-01-10T10:11:57;25.30;;;14.40;;
11537;SDS011;50159;49.426;11.182;2024-01-10T10:14:24;22.63;;;13.05;;
11537;SDS011;50159;49.426;11.182;2024-01-10T10:16:55;17.80;;;10.73;;
11537;SDS011;50159;49.426;11.182;2024-01-10T10:19:22;23.53;;;11.33;;
11537;SDS011;50159;49.426;11.182;2024-01-10T10:22:08;18.17;;;11.00;;
11537;SDS011;50159;49.426;11.182;2024-01-10T10:24:36;18.83;;;12.17;;
11537;SDS011;50159;49.426;11.182;2024-01-10T10:27:08;22.77;;;13.57;;
11537;SDS011;50159;49.426;11.182;2024-01-10T10:29:36;21.90;;;13.53;;
11537;SDS011;50159;49.426;11.182;2024-01-10T10:32:04;21.97;;;12.57;;
11537;SDS011;50159;49.426;11.182;2024-01-10T10:34:32;18.73;;;11.93;;
11537;SDS011;50159;49.426;11.182;2024-01-10T10:37:00;21.83;;;11.80;;
11537;SDS011;50159;49.426;11.182;2024-01-10T10:39:28;17.20;;;10.63;;
11537;SDS011;50159;49.426;11.182;2024-01-10T10:41:55;14.77;;;11.13;;
11537;SDS011;50159;49.426;11.182;2024-01-10T10:44:24;20.87;;;10.93;;
11537;SDS011;50159;49.426;11.182;2024-01-10T10:46:54;16.07;;;10.03;;
11537;SDS011;50159;49.426;11.182;2024-01-10T10:49:39;15.73;;;9.70;;
11537;SDS011;50159;49.426;11.182;2024-01-10T10:52:21;13.67;;;10.67;;
11537;SDS011;50159;49.426;11.182;2024-01-10T10:54:50;21.27;;;12.45;;
11537;SDS011;50159;49.426;11.182;2024-01-10T10:57:21;20.77;;;12.00;;
11537;SDS011;50159;49.426;11.182;2024-01-10T10:59:53;18.10;;;11.40;;
11537;SDS011;50159;49.426;11.182;2024-01-10T11:02:23;18.53;;;11.23;;
11537;SDS011;50159;49.426;11.182;2024-01-10T11:04:56;18.97;;;11.40;;
11537;SDS011;50159;49.426;11.182;2024-01-10T11:07:26;17.93;;;10.77;;
11537;SDS011;50159;49.426;11.182;2024-01-10T11:09:53;17.07;;;10.57;;
11537;SDS011;50159;49.426;11.182;2024-01-10T11:18:19;20.03;;;10.17;;
11537;SDS011;50159;49.426;11.182;2024-01-10T11:23:49;17.43;;;10.87;;
11537;SDS011;50159;49.426;11.182;2024-01-10T11:26:21;15.83;;;10.07;;
11537;SDS011;50159;49.426;11.182;2024-01-10T11:28:48;23.00;;;11.47;;
11537;SDS011;50159;49.426;11.182;2024-01-10T11:31:20;23.13;;;11.20;;
11537;SDS011;50159;49.426;11.182;2024-01-10T11:34:00;18.13;;;10.37;;
11537;SDS011;50159;49.426;11.182;2024-01-10T11:36:29;19.00;;;12.03;;
11537;SDS011;50159;49.426;11.182;2024-01-10T11:38:59;20.17;;;11.73;;
11537;SDS011;50159;49.426;11.182;2024-01-10T11:41:31;22.47;;;10.83;;
11537;SDS011;50159;49.426;11.182;2024-01-10T11:46:43;18.20;;;10.73;;
11537;SDS011;50159;49.426;11.182;2024-01-10T11:49:14;20.20;;;10.90;;
11537;SDS011;50159;49.426;11.182;2024-01-10T11:51:46;21.40;;;10.87;;
11537;SDS011;50159;49.426;11.182;2024-01-10T11:57:08;21.37;;;10.90;;
11537;SDS011;50159;49.426;11.182;2024-01-10T11:59:40;17.37;;;9.43;;
11537;SDS011;50159;49.426;11.182;2024-01-10T12:02:10;18.00;;;10.50;;
11537;SDS011;50159;49.426;11.182;2024-01-10T12:04:39;19.10;;;10.83;;
11537;SDS011;50159;49.426;11.182;2024-01-10T12:07:14;15.80;;;10.30;;
11537;SDS011;50159;49.426;11.182;2024-01-10T12:09:43;19.00;;;11.80;;
11537;SDS011;50159;49.426;11.182;2024-01-10T12:12:14;23.77;;;13.23;;
11537;SDS011;50159;49.426;11.182;2024-01-10T12:14:42;20.77;;;12.10;;
11537;SDS011;50159;49.426;11.182;2024-01-10T12:17:13;18.47;;;11.23;;
11537;SDS011;50159;49.426;11.182;2024-01-10T12:19:40;18.73;;;11.40;;
11537;SDS011;50159;49.426;11.182;2024-01-10T12:22:11;17.60;;;11.23;;
11537;SDS011;50159;49.426;11.182;2024-01-10T12:24:47;22.73;;;11.10;;
11537;SDS011;50159;49.426;11.182;2024-01-10T12:27:16;13.33;;;9.80;;
11537;SDS011;50159;49.426;11.182;2024-01-10T12:29:50;14.87;;;10.57;;
11537;SDS011;50159;49.426;11.182;2024-01-10T12:32:19;17.87;;;11.07;;
11537;SDS011;50159;49.426;11.182;2024-01-10T12:35:00;16.87;;;10.70;;
11537;SDS011;50159;49.426;11.182;2024-01-10T12:37:29;17.30;;;10.20;;
11537;SDS011;50159;49.426;11.182;2024-01-10T12:39:57;21.13;;;10.33;;
11537;SDS011;50159;49.426;11.182;2024-01-10T12:42:25;16.77;;;11.07;;
11537;SDS011;50159;49.426;11.182;2024-01-10T12:44:52;18.07;;;10.57;;
11537;SDS011;50159;49.426;11.182;2024-01-10T12:47:20;16.47;;;11.00;;
11537;SDS011;50159;49.426;11.182;2024-01-10T12:49:49;15.68;;;11.55;;
11537;SDS011;50159;49.426;11.182;2024-01-10T12:52:17;15.97;;;10.17;;
11537;SDS011;50159;49.426;11.182;2024-01-10T12:54:48;17.77;;;10.77;;
11537;SDS011;50159;49.426;11.182;2024-01-10T12:57:15;12.90;;;10.03;;
11537;SDS011;50159;49.426;11.182;2024-01-10T12:59:41;17.23;;;11.27;;
11537;SDS011;50159;49.426;11.182;2024-01-10T13:02:08;17.93;;;10.90;;
11537;SDS011;50159;49.426;11.182;2024-01-10T13:04:35;17.48;;;11.65;;
11537;SDS011;50159;49.426;11.182;2024-01-10T13:07:02;17.67;;;10.93;;
11537;SDS011;50159;49.426;11.182;2024-01-10T13:09:29;15.47;;;10.77;;
11537;SDS011;50159;49.426;11.182;2024-01-10T13:11:56;17.70;;;10.27;;
11537;SDS011;50159;49.426;11.182;2024-01-10T13:14:23;12.93;;;9.87;;
11537;SDS011;50159;49.426;11.182;2024-01-10T13:16:50;14.87;;;9.67;;
11537;SDS011;50159;49.426;11.182;2024-01-10T13:19:25;15.20;;;9.50;;
11537;SDS011;50159;49.426;11.182;2024-01-10T13:21:52;15.07;;;10.77;;
11537;SDS011;50159;49.426;11.182;2024-01-10T13:24:20;16.43;;;11.27;;
11537;SDS011;50159;49.426;11.182;2024-01-10T13:26:47;14.90;;;10.43;;
11537;SDS011;50159;49.426;11.182;2024-01-10T13:29:14;16.13;;;10.90;;
11537;SDS011;50159;49.426;11.182;2024-01-10T13:31:42;14.03;;;9.63;;
11537;SDS011;50159;49.426;11.182;2024-01-10T13:34:09;16.20;;;10.57;;
11537;SDS011;50159;49.426;11.182;2024-01-10T13:36:37;12.83;;;9.63;;
11537;SDS011;50159;49.426;11.182;2024-01-10T13:39:04;13.97;;;9.83;;
11537;SDS011;50159;49.426;11.182;2024-01-10T13:41:31;14.90;;;10.83;;
11537;SDS011;50159;49.426;11.182;2024-01-10T13:43:58;16.10;;;10.43;;
11537;SDS011;50159;49.426;11.182;2024-01-10T13:46:25;15.30;;;11.33;;
11537;SDS011;50159;49.426;11.182;2024-01-10T13:48:52;19.00;;;11.57;;
11537;SDS011;50159;49.426;11.182;2024-01-10T13:51:18;18.60;;;12.23;;
11537;SDS011;50159;49.426;11.182;2024-01-10T13:53:45;17.20;;;10.63;;
11537;SDS011;50159;49.426;11.182;2024-01-10T13:56:12;16.33;;;11.77;;
11537;SDS011;50159;49.426;11.182;2024-01-10T13:58:39;17.83;;;11.00;;
11537;SDS011;50159;49.426;11.182;2024-01-10T14:01:06;18.90;;;11.43;;
11537;SDS011;50159;49.426;11.182;2024-01-10T14:03:33;18.77;;;10.53;;
11537;SDS011;50159;49.426;11.182;2024-01-10T14:05:59;16.47;;;9.90;;
11537;SDS011;50159;49.426;11.182;2024-01-10T14:08:27;17.83;;;10.90;;
11537;SDS011;50159;49.426;11.182;2024-01-10T14:10:53;12.87;;;9.53;;
11537;SDS011;50159;49.426;11.182;2024-01-10T14:13:20;14.27;;;8.80;;
11537;SDS011;50159;49.426;11.182;2024-01-10T14:15:49;12.57;;;9.03;;
11537;SDS011;50159;49.426;11.182;2024-01-10T14:18:16;14.50;;;10.27;;
11537;SDS011;50159;49.426;11.182;2024-01-10T14:20:43;11.90;;;9.03;;
11537;SDS011;50159;49.426;11.182;2024-01-10T14:23:09;19.60;;;11.73;;
11537;SDS011;50159;49.426;11.182;2024-01-10T14:25:36;17.33;;;11.07;;
11537;SDS011;50159;49.426;11.182;2024-01-10T14:28:03;16.03;;;10.50;;
11537;SDS011;50159;49.426;11.182;2024-01-10T14:30:30;15.63;;;10.43;;
11537;SDS011;50159;49.426;11.182;2024-01-10T14:32:58;15.07;;;11.47;;
11537;SDS011;50159;49.426;11.182;2024-01-10T14:35:26;19.93;;;11.50;;
11537;SDS011;50159;49.426;11.182;2024-01-10T14:37:53;18.90;;;12.20;;
11537;SDS011;50159;49.426;11.182;2024-01-10T14:40:20;16.57;;;10.87;;
11537;SDS011;50159;49.426;11.182;2024-01-10T14:42:50;15.53;;;10.80;;
11537;SDS011;50159;49.426;11.182;2024-01-10T14:45:17;19.97;;;11.47;;
11537;SDS011;50159;49.426;11.182;2024-01-10T14:47:43;17.40;;;11.40;;
11537;SDS011;50159;49.426;11.182;2024-01-10T14:50:11;15.80;;;10.03;;
11537;SDS011;50159;49.426;11.182;2024-01-10T14:52:38;14.20;;;9.87;;
11537;SDS011;50159;49.426;11.182;2024-01-10T14:55:04;16.97;;;10.80;;
11537;SDS011;50159;49.426;11.182;2024-01-10T14:57:32;13.73;;;9.43;;
11537;SDS011;50159;49.426;11.182;2024-01-10T14:59:59;17.77;;;11.70;;
11537;SDS011;50159;49.426;11.182;2024-01-10T15:02:26;21.90;;;11.50;;
11537;SDS011;50159;49.426;11.182;2024-01-10T15:04:53;16.57;;;10.70;;
11537;SDS011;50159;49.426;11.182;2024-01-10T15:07:20;21.87;;;11.80;;
11537;SDS011;50159;49.426;11.182;2024-01-10T15:09:47;18.20;;;11.20;;
11537;SDS011;50159;49.426;11.182;2024-01-10T15:12:14;16.90;;;10.63;;
11537;SDS011;50159;49.426;11.182;2024-01-10T15:14:41;16.57;;;10.27;;
11537;SDS011;50159;49.426;11.182;2024-01-10T15:17:08;18.97;;;12.03;;
11537;SDS011;50159;49.426;11.182;2024-01-10T15:19:37;19.27;;;11.17;;
11537;SDS011;50159;49.426;11.182;2024-01-10T15:22:05;15.30;;;10.27;;
11537;SDS011;50159;49.426;11.182;2024-01-10T15:24:32;13.47;;;9.07;;
11537;SDS011;50159;49.426;11.182;2024-01-10T15:26:59;15.60;;;10.50;;
11537;SDS011;50159;49.426;11.182;2024-01-10T15:29:28;14.83;;;10.07;;
11537;SDS011;50159;49.426;11.182;2024-01-10T15:31:56;22.63;;;11.93;;
11537;SDS011;50159;49.426;11.182;2024-01-10T15:34:24;19.10;;;12.63;;
11537;SDS011;50159;49.426;11.182;2024-01-10T15:36:52;18.83;;;12.30;;
11537;SDS011;50159;49.426;11.182;2024-01-10T15:39:19;19.40;;;11.63;;
11537;SDS011;50159;49.426;11.182;2024-01-10T15:41:50;18.43;;;11.83;;
11537;SDS011;50159;49.426;11.182;2024-01-10T15:44:18;19.93;;;11.33;;
11537;SDS011;50159;49.426;11.182;2024-01-10T15:46:47;17.70;;;10.37;;
11537;SDS011;50159;49.426;11.182;2024-01-10T15:49:15;16.33;;;9.50;;
11537;SDS011;50159;49.426;11.182;2024-01-10T15:51:42;14.80;;;9.73;;
11537;SDS011;50159;49.426;11.182;2024-01-10T15:54:09;11.77;;;8.40;;
11537;SDS011;50159;49.426;11.182;2024-01-10T15:56:36;13.43;;;9.40;;
11537;SDS011;50159;49.426;11.182;2024-01-10T15:59:07;13.07;;;8.63;;
11537;SDS011;50159;49.426;11.182;2024-01-10T16:01:34;14.43;;;9.20;;
11537;SDS011;50159;49.426;11.182;2024-01-10T16:04:01;12.73;;;8.60;;
11537;SDS011;50159;49.426;11.182;2024-01-10T16:06:30;10.27;;;8.37;;
11537;SDS011;50159;49.426;11.182;2024-01-10T16:08:58;19.37;;;9.33;;
11537;SDS011;50159;49.426;11.182;2024-01-10T16:11:25;9.63;;;7.17;;
11537;SDS011;50159;49.426;11.182;2024-01-10T16:13:52;15.13;;;8.27;;
11537;SDS011;50159;49.426;11.182;2024-01-10T16:16:23;13.20;;;8.83;;
11537;SDS011;50159;49.426;11.182;2024-01-10T16:18:56;10.13;;;8.53;;
11537;SDS011;50159;49.426;11.182;2024-01-10T16:21:24;12.83;;;8.13;;
11537;SDS011;50159;49.426;11.182;2024-01-10T16:23:51;13.73;;;8.10;;
11537;SDS011;50159;49.426;11.182;2024-01-10T16:26:18;10.80;;;7.13;;
11537;SDS011;50159;49.426;11.182;2024-01-10T16:28:45;12.00;;;7.93;;
11537;SDS011;50159;49.426;11.182;2024-01-10T16:31:14;12.83;;;7.97;;
11537;SDS011;50159;49.426;11.182;2024-01-10T16:33:42;12.90;;;8.73;;
11537;SDS011;50159;49.426;11.182;2024-01-10T16:36:09;10.03;;;7.50;;
11537;SDS011;50159;49.426;11.182;2024-01-10T16:38:36;11.37;;;7.83;;
11537;SDS011;50159;49.426;11.182;2024-01-10T16:41:03;13.37;;;8.53;;
11537;SDS011;50159;49.426;11.182;2024-01-10T16:43:30;10.53;;;8.53;;
11537;SDS011;50159;49.426;11.182;2024-01-10T16:45:57;13.60;;;8.77;;
11537;SDS011;50159;49.426;11.182;2024-01-10T16:48:25;14.80;;;8.07;;
11537;SDS011;50159;49.426;11.182;2024-01-10T16:50:53;15.70;;;8.57;;
11537;SDS011;50159;49.426;11.182;2024-01-10T16:53:24;11.70;;;7.73;;
11537;SDS011;50159;49.426;11.182;2024-01-10T16:55:52;16.00;;;9.17;;
11537;SDS011;50159;49.426;11.182;2024-01-10T16:58:20;15.33;;;9.50;;
11537;SDS011;50159;49.426;11.182;2024-01-10T17:00:47;10.53;;;8.57;;
11537;SDS011;50159;49.426;11.182;2024-01-10T17:03:14;13.63;;;8.67;;
11537;SDS011;50159;49.426;11.182;2024-01-10T17:05:41;12.97;;;8.27;;
11537;SDS011;50159;49.426;11.182;2024-01-10T17:08:10;12.93;;;8.20;;
11537;SDS011;50159;49.426;11.182;2024-01-10T17:10:37;13.93;;;8.17;;
11537;SDS011;50159;49.426;11.182;2024-01-10T17:13:04;11.33;;;8.33;;
11537;SDS011;50159;49.426;11.182;2024-01-10T17:15:31;15.80;;;9.50;;
11537;SDS011;50159;49.426;11.182;2024-01-10T17:17:59;14.50;;;9.10;;
11537;SDS011;50159;49.426;11.182;2024-01-10T17:20:27;13.03;;;8.57;;
11537;SDS011;50159;49.426;11.182;2024-01-10T17:22:54;16.43;;;10.37;;
11537;SDS011;50159;49.426;11.182;2024-01-10T17:25:21;16.67;;;10.10;;
11537;SDS011;50159;49.426;11.182;2024-01-10T17:27:49;15.33;;;10.30;;
11537;SDS011;50159;49.426;11.182;2024-01-10T17:30:16;17.60;;;10.17;;
11537;SDS011;50159;49.426;11.182;2024-01-10T17:32:43;16.87;;;10.53;;
11537;SDS011;50159;49.426;11.182;2024-01-10T17:35:11;20.73;;;10.37;;
11537;SDS011;50159;49.426;11.182;2024-01-10T17:37:42;13.67;;;10.10;;
11537;SDS011;50159;49.426;11.182;2024-01-10T17:40:09;15.27;;;9.10;;
11537;SDS011;50159;49.426;11.182;2024-01-10T17:42:36;12.50;;;8.67;;
11537;SDS011;50159;49.426;11.182;2024-01-10T17:45:04;15.80;;;9.47;;
11537;SDS011;50159;49.426;11.182;2024-01-10T17:47:32;17.90;;;10.93;;
11537;SDS011;50159;49.426;11.182;2024-01-10T17:50:00;14.53;;;9.90;;
11537;SDS011;50159;49.426;11.182;2024-01-10T17:52:27;17.87;;;10.57;;
11537;SDS011;50159;49.426;11.182;2024-01-10T17:54:54;19.63;;;10.43;;
11537;SDS011;50159;49.426;11.182;2024-01-10T17:57:21;13.53;;;9.33;;
11537;SDS011;50159;49.426;11.182;2024-01-10T17:59:53;15.83;;;11.17;;
11537;SDS011;50159;49.426;11.182;2024-01-10T18:02:20;17.00;;;10.90;;
11537;SDS011;50159;49.426;11.182;2024-01-10T18:04:48;19.00;;;10.77;;
11537;SDS011;50159;49.426;11.182;2024-01-10T18:07:15;15.63;;;11.03;;
11537;SDS011;50159;49.426;11.182;2024-01-10T18:09:42;18.07;;;11.63;;
11537;SDS011;50159;49.426;11.182;2024-01-10T18:12:09;16.17;;;11.10;;
11537;SDS011;50159;49.426;11.182;2024-01-10T18:14:36;12.83;;;9.47;;
11537;SDS011;50159;49.426;11.182;2024-01-10T18:17:03;18.27;;;11.10;;
11537;SDS011;50159;49.426;11.182;2024-01-10T18:19:30;13.07;;;8.93;;
11537;SDS011;50159;49.426;11.182;2024-01-10T18:21:57;13.00;;;9.23;;
11537;SDS011;50159;49.426;11.182;2024-01-10T18:24:24;15.43;;;10.50;;
11537;SDS011;50159;49.426;11.182;2024-01-10T18:26:50;16.47;;;10.73;;
11537;SDS011;50159;49.426;11.182;2024-01-10T18:29:17;14.53;;;9.80;;
11537;SDS011;50159;49.426;11.182;2024-01-10T18:31:44;15.63;;;10.90;;
11537;SDS011;50159;49.426;11.182;2024-01-10T18:34:13;16.33;;;10.57;;
11537;SDS011;50159;49.426;11.182;2024-01-10T18:36:40;17.03;;;11.43;;
11537;SDS011;50159;49.426;11.182;2024-01-10T18:39:06;18.93;;;10.80;;
11537;SDS011;50159;49.426;11.182;2024-01-10T18:41:34;16.63;;;11.43;;
11537;SDS011;50159;49.426;11.182;2024-01-10T18:44:02;16.40;;;11.03;;
11537;SDS011;50159;49.426;11.182;2024-01-10T18:46:30;17.13;;;9.93;;
11537;SDS011;50159;49.426;11.182;2024-01-10T18:48:57;20.03;;;12.53;;
11537;SDS011;50159;49.426;11.182;2024-01-10T18:51:24;21.27;;;10.63;;
11537;SDS011;50159;49.426;11.182;2024-01-10T18:53:50;19.43;;;11.87;;
11537;SDS011;50159;49.426;11.182;2024-01-10T18:56:17;22.73;;;13.40;;
11537;SDS011;50159;49.426;11.182;2024-01-10T18:58:44;20.63;;;12.73;;
11537;SDS011;50159;49.426;11.182;2024-01-10T19:01:11;26.97;;;13.70;;
11537;SDS011;50159;49.426;11.182;2024-01-10T19:03:38;20.10;;;12.37;;
11537;SDS011;50159;49.426;11.182;2024-01-10T19:06:05;20.43;;;13.47;;
11537;SDS011;50159;49.426;11.182;2024-01-10T19:08:34;21.07;;;13.13;;